createdAt,value
2019-02-07T00:03:34.714Z,69.06
2019-02-07T00:08:40.334Z,67.59
2019-02-07T00:13:45.692Z,66.08
2019-02-07T00:18:51.148Z,66.91
2019-02-07T00:23:56.610Z,66.43
2019-02-07T00:29:01.774Z,67.05
2019-02-07T00:34:07.072Z,66.08
2019-02-07T00:39:12.221Z,66.60
2019-02-07T00:44:17.482Z,67.22
2019-02-07T00:49:22.573Z,66.67
2019-02-07T00:54:28.459Z,66.62
2019-02-07T00:59:33.684Z,66.99
2019-02-07T01:04:39.183Z,67.70
2019-02-07T01:09:44.405Z,67.83
2019-02-07T01:14:55.283Z,67.61
2019-02-07T01:19:57.237Z,64.07
2019-02-07T01:25:02.390Z,64.22
2019-02-07T01:30:09.927Z,65.06
2019-02-07T01:35:15.587Z,65.42
2019-02-07T01:40:21.151Z,64.62
2019-02-07T01:45:26.295Z,64.88
2019-02-07T01:50:31.440Z,64.82
2019-02-07T01:55:36.580Z,64.42
2019-02-07T02:00:42.057Z,65.20
2019-02-07T02:05:47.777Z,65.32
2019-02-07T02:10:52.924Z,65.57
2019-02-07T02:15:58.486Z,65.67
2019-02-07T02:21:03.647Z,64.99
2019-02-07T02:26:09.288Z,65.30
2019-02-07T02:31:14.652Z,64.49
2019-02-07T02:36:20.078Z,63.68
2019-02-07T02:41:25.625Z,63.36
2019-02-07T02:46:30.791Z,63.97
2019-02-07T02:51:36.520Z,64.35
2019-02-07T02:56:41.608Z,65.53
2019-02-07T03:01:58.213Z,65.86
2019-02-07T03:07:20.198Z,66.80
2019-02-07T03:12:53.740Z,66.27
2019-02-07T03:18:20.767Z,65.92
2019-02-07T03:23:44.217Z,64.83
2019-02-07T03:29:14.481Z,63.30
2019-02-07T03:34:39.337Z,62.32
2019-02-07T03:39:55.000Z,61.62
2019-02-07T03:45:18.108Z,62.03
2019-02-07T03:50:41.378Z,62.68
2019-02-07T03:56:03.010Z,62.64
2019-02-07T04:01:30.630Z,64.44
2019-02-07T04:07:00.092Z,65.15
2019-02-07T04:12:17.022Z,66.39
2019-02-07T04:17:56.253Z,66.11
2019-02-07T04:23:27.301Z,66.31
2019-02-07T04:28:48.369Z,65.29
2019-02-07T04:34:09.113Z,65.67
2019-02-07T04:39:33.356Z,65.60
2019-02-07T04:44:58.570Z,66.29
2019-02-07T04:50:31.931Z,66.62
2019-02-07T04:55:52.544Z,66.29
2019-02-07T05:01:08.150Z,66.37
2019-02-07T05:06:23.122Z,66.81
2019-02-07T05:11:47.972Z,66.81
2019-02-07T05:17:04.891Z,66.85
2019-02-07T05:22:47.603Z,68.33
2019-02-07T05:28:04.944Z,68.70
2019-02-07T05:33:38.448Z,68.81
2019-02-07T05:38:52.348Z,68.84
2019-02-07T05:44:14.057Z,69.36
2019-02-07T05:49:50.447Z,69.63
2019-02-07T05:55:24.924Z,69.80
2019-02-07T06:00:52.483Z,69.37
2019-02-07T06:06:09.186Z,68.43
2019-02-07T06:11:37.784Z,67.06
2019-02-07T06:17:03.465Z,66.62
2019-02-07T06:22:26.649Z,66.04
2019-02-07T06:27:40.488Z,65.44
2019-02-07T06:33:16.793Z,66.28
2019-02-07T06:38:56.121Z,64.90
2019-02-07T06:44:19.209Z,65.20
2019-02-07T06:49:46.507Z,63.67
2019-02-07T06:55:09.832Z,62.21
2019-02-07T07:00:25.623Z,63.02
2019-02-07T07:05:48.811Z,63.24
2019-02-07T07:11:20.980Z,62.97
2019-02-07T07:16:43.804Z,63.76
2019-02-07T07:22:07.287Z,61.34
2019-02-07T07:27:35.133Z,62.32
2019-02-07T07:32:59.440Z,61.32
2019-02-07T07:38:26.875Z,60.94
2019-02-07T07:44:03.912Z,61.43
2019-02-07T07:49:26.952Z,62.65
2019-02-07T07:55:03.638Z,63.09
2019-02-07T08:00:33.500Z,63.13
2019-02-07T08:05:54.425Z,63.57
2019-02-07T08:11:07.074Z,63.62
2019-02-07T08:16:31.629Z,63.11
2019-02-07T08:21:51.351Z,62.85
2019-02-07T08:27:18.413Z,63.01
2019-02-07T08:32:48.441Z,64.58
2019-02-07T08:38:15.656Z,63.79
2019-02-07T08:43:37.784Z,62.90
2019-02-07T08:49:01.963Z,62.82
2019-02-07T08:54:35.212Z,61.35
2019-02-07T08:59:58.288Z,62.44
2019-02-07T09:05:25.724Z,62.49
2019-02-07T09:10:47.512Z,62.70
2019-02-07T09:16:05.646Z,62.91
2019-02-07T09:21:32.556Z,61.84
2019-02-07T09:26:48.625Z,61.78
2019-02-07T09:32:12.833Z,63.31
2019-02-07T09:37:42.803Z,63.23
2019-02-07T09:43:00.601Z,63.04
2019-02-07T09:48:24.877Z,63.30
2019-02-07T09:53:49.548Z,64.25
2019-02-07T09:59:22.371Z,62.92
2019-02-07T10:04:44.472Z,62.74
2019-02-07T10:10:24.329Z,62.67
2019-02-07T10:15:47.184Z,63.33
2019-02-07T10:21:14.756Z,62.94
2019-02-07T10:26:42.044Z,62.47
2019-02-07T10:32:08.236Z,62.55
2019-02-07T10:37:31.285Z,63.31
2019-02-07T10:43:13.545Z,61.66
2019-02-07T10:48:44.170Z,62.64
2019-02-07T10:53:51.479Z,61.75
2019-02-07T10:59:13.602Z,61.86
2019-02-07T11:04:37.812Z,62.04
2019-02-07T11:09:56.883Z,61.67
2019-02-07T11:15:25.183Z,61.40
2019-02-07T11:20:58.408Z,62.20
2019-02-07T11:26:22.927Z,62.06
2019-02-07T11:31:56.420Z,61.85
2019-02-07T11:37:19.238Z,62.11
2019-02-07T11:42:53.311Z,62.47
2019-02-07T11:48:09.332Z,61.15
2019-02-07T11:53:27.070Z,61.56
2019-02-07T11:58:54.825Z,62.02
2019-02-07T12:04:22.026Z,61.58
2019-02-07T12:09:55.562Z,61.54
2019-02-07T12:15:28.886Z,62.22
2019-02-07T12:20:53.038Z,62.14
2019-02-07T12:26:23.234Z,62.56
2019-02-07T12:31:46.346Z,64.01
2019-02-07T12:37:20.907Z,64.28
2019-02-07T12:42:45.069Z,64.24
2019-02-07T12:48:01.032Z,64.84
2019-02-07T12:53:26.149Z,64.38
2019-02-07T12:58:46.755Z,64.66
2019-02-07T13:04:23.144Z,64.16
2019-02-07T13:09:59.520Z,64.02
2019-02-07T13:15:19.552Z,64.54
2019-02-07T13:20:46.544Z,65.74
2019-02-07T13:26:09.314Z,66.53
2019-02-07T13:31:26.152Z,66.74
2019-02-07T13:36:49.581Z,67.54
2019-02-07T13:42:32.035Z,68.70
2019-02-07T13:47:58.968Z,69.88
2019-02-07T13:53:25.013Z,70.94
2019-02-07T13:58:47.999Z,71.10
2019-02-07T14:04:18.289Z,71.55
2019-02-07T14:09:36.112Z,72.60
2019-02-07T14:15:06.474Z,73.01
2019-02-07T14:20:43.136Z,74.04
2019-02-07T14:26:00.551Z,74.27
2019-02-07T14:31:43.253Z,74.96
2019-02-07T14:37:25.470Z,75.66
2019-02-07T14:42:52.887Z,76.48
2019-02-07T14:47:58.074Z,76.98
2019-02-07T14:53:03.258Z,77.31
2019-02-07T14:58:08.819Z,77.49
2019-02-07T15:03:14.051Z,77.69
2019-02-07T15:08:20.122Z,78.39
2019-02-07T15:13:25.299Z,78.63
2019-02-07T15:18:30.469Z,79.38
2019-02-07T15:23:35.648Z,79.11
2019-02-07T15:28:40.934Z,79.36
2019-02-07T15:33:46.235Z,79.66
2019-02-07T15:38:51.802Z,79.37
2019-02-07T15:43:58.173Z,79.38
2019-02-07T15:49:03.624Z,79.20
2019-02-07T15:54:08.793Z,79.19
2019-02-07T15:59:34.143Z,79.21
2019-02-07T16:04:41.858Z,79.40
2019-02-07T16:09:47.155Z,79.43
2019-02-07T16:14:52.818Z,79.52
2019-02-07T16:19:58.001Z,79.47
2019-02-07T16:25:03.185Z,79.64
2019-02-07T16:30:12.710Z,79.64
2019-02-07T16:35:18.239Z,79.82
2019-02-07T16:40:23.847Z,79.74
2019-02-07T16:45:30.102Z,79.81
2019-02-07T16:50:35.809Z,79.85
2019-02-07T16:55:40.996Z,79.79
2019-02-07T17:00:46.533Z,79.91
2019-02-07T17:05:51.720Z,80.08
2019-02-07T17:10:59.061Z,80.31
2019-02-07T17:16:04.843Z,80.28
2019-02-07T17:21:12.127Z,80.38
2019-02-07T17:26:17.109Z,80.43
2019-02-07T17:31:23.330Z,80.85
2019-02-07T17:36:28.784Z,81.08
2019-02-07T17:41:36.022Z,81.39
2019-02-07T17:46:41.209Z,82.28
2019-02-07T17:51:46.726Z,82.71
2019-02-07T17:56:51.956Z,83.15
2019-02-07T18:01:57.222Z,83.38
2019-02-07T18:07:02.393Z,83.78
2019-02-07T18:12:08.177Z,84.07
2019-02-07T18:17:13.790Z,83.78
2019-02-07T18:22:19.980Z,84.34
2019-02-07T18:27:25.196Z,85.01
2019-02-07T18:32:30.455Z,85.42
2019-02-07T18:37:36.379Z,85.53
2019-02-07T18:42:41.583Z,86.04
2019-02-07T18:47:46.994Z,86.20
2019-02-07T18:52:52.729Z,86.72
2019-02-07T18:57:59.161Z,86.84
2019-02-07T19:03:05.437Z,86.36
2019-02-07T19:08:10.988Z,86.79
2019-02-07T19:13:16.574Z,85.98
2019-02-07T19:18:21.952Z,85.75
2019-02-07T19:23:27.467Z,85.90
2019-02-07T19:28:33.201Z,86.03
2019-02-07T19:33:39.036Z,86.28
2019-02-07T19:38:44.268Z,86.52
2019-02-07T19:43:49.525Z,86.65
2019-02-07T19:48:55.284Z,86.35
2019-02-07T19:54:01.447Z,86.30
2019-02-07T19:59:07.582Z,86.23
2019-02-07T20:04:14.109Z,86.71
2019-02-07T20:09:19.649Z,87.02
2019-02-07T20:14:24.851Z,86.36
2019-02-07T20:19:30.074Z,86.47
2019-02-07T20:24:45.678Z,86.67
2019-02-07T20:29:42.389Z,86.01
2019-02-07T20:34:47.598Z,86.18
2019-02-07T20:39:53.072Z,86.35
2019-02-07T20:44:58.256Z,87.27
2019-02-07T20:50:05.863Z,87.17
2019-02-07T20:55:12.405Z,87.30
2019-02-07T21:00:23.589Z,87.45
2019-02-07T21:05:30.188Z,87.73
2019-02-07T21:10:35.779Z,87.65
2019-02-07T21:15:41.908Z,88.45
2019-02-07T21:20:47.097Z,87.76
2019-02-07T21:25:53.097Z,87.81
2019-02-07T21:30:58.641Z,88.12
2019-02-07T21:36:04.083Z,88.03
2019-02-07T21:41:09.690Z,88.16
2019-02-07T21:46:14.869Z,88.31
2019-02-07T21:51:20.251Z,88.17
2019-02-07T21:56:25.462Z,88.53
2019-02-07T22:01:30.646Z,87.96
2019-02-07T22:06:37.320Z,87.70
2019-02-07T22:11:42.619Z,88.11
2019-02-07T22:16:48.299Z,87.44
2019-02-07T22:21:53.568Z,87.92
2019-02-07T22:26:58.738Z,88.29
2019-02-07T22:32:04.071Z,88.47
2019-02-07T22:37:09.490Z,87.85
2019-02-07T22:42:15.044Z,88.03
2019-02-07T22:47:20.600Z,88.24
2019-02-07T22:52:25.918Z,88.64
2019-02-07T22:57:32.976Z,89.22
2019-02-07T23:02:38.660Z,88.42
2019-02-07T23:07:44.156Z,88.86
2019-02-07T23:12:49.330Z,89.19
2019-02-07T23:17:54.902Z,88.87
2019-02-07T23:23:05.186Z,88.45
2019-02-07T23:28:07.946Z,88.45
2019-02-07T23:33:13.756Z,88.18
2019-02-07T23:38:18.908Z,88.85
2019-02-07T23:43:24.515Z,88.85
2019-02-07T23:48:29.721Z,89.28
2019-02-07T23:53:34.898Z,89.72
2019-02-07T23:58:40.097Z,89.95
